createdAt,value
2022-08-17T00:00:43.601Z,60.50
2022-08-17T00:03:13.657Z,60.50
2022-08-17T00:05:47.998Z,60.70
2022-08-17T00:08:19.692Z,60.80
2022-08-17T00:10:49.364Z,60.90
2022-08-17T00:13:24.706Z,60.90
2022-08-17T00:15:55.671Z,61.00
2022-08-17T00:19:06.103Z,61.10
2022-08-17T00:21:15.529Z,61.20
2022-08-17T00:23:52.221Z,61.30
2022-08-17T00:26:35.824Z,61.50
2022-08-17T00:29:10.673Z,61.80
2022-08-17T00:34:17.596Z,62.40
2022-08-17T00:36:47.449Z,62.60
2022-08-17T00:41:44.697Z,63.10
2022-08-17T00:44:13.203Z,63.40
2022-08-17T00:46:44.382Z,63.60
2022-08-17T00:49:15.232Z,63.80
2022-08-17T00:51:51.350Z,64.10
2022-08-17T00:54:24.949Z,64.40
2022-08-17T00:57:00.281Z,64.60
2022-08-17T00:59:34.884Z,64.90
2022-08-17T01:02:06.269Z,65.00
2022-08-17T01:04:35.700Z,65.30
2022-08-17T01:07:07.033Z,65.70
2022-08-17T01:09:35.851Z,65.90
2022-08-17T01:12:06.614Z,66.40
2022-08-17T01:14:38.208Z,66.70
2022-08-17T01:19:40.186Z,67.50
2022-08-17T01:22:21.754Z,67.30
2022-08-17T01:24:53.586Z,67.50
2022-08-17T01:27:23.122Z,67.60
2022-08-17T01:29:57.883Z,67.70
2022-08-17T01:32:28.050Z,68.00
2022-08-17T01:34:56.589Z,68.10
2022-08-17T01:37:34.458Z,68.40
2022-08-17T01:40:13.845Z,68.60
2022-08-17T01:42:49.862Z,68.70
2022-08-17T01:45:23.918Z,69.10
2022-08-17T01:47:53.703Z,69.20
2022-08-17T01:50:26.252Z,69.40
2022-08-17T01:53:01.062Z,69.50
2022-08-17T01:55:33.673Z,70.10
2022-08-17T01:58:02.342Z,69.60
2022-08-17T02:00:59.538Z,69.80
2022-08-17T02:03:19.454Z,72.30
2022-08-17T02:05:49.318Z,70.40
2022-08-17T02:08:20.694Z,70.70
2022-08-17T02:11:11.701Z,70.90
2022-08-17T02:13:40.784Z,71.10
2022-08-17T02:18:37.977Z,71.60
2022-08-17T02:21:07.517Z,71.90
2022-08-17T02:23:42.762Z,72.20
2022-08-17T02:26:11.995Z,72.60
2022-08-17T02:28:54.835Z,72.90
2022-08-17T02:31:23.268Z,73.00
2022-08-17T02:34:00.389Z,73.30
2022-08-17T02:36:35.117Z,73.50
2022-08-17T02:39:09.238Z,73.90
2022-08-17T02:41:38.926Z,74.00
2022-08-17T02:44:08.080Z,74.10
2022-08-17T02:46:36.861Z,74.30
2022-08-17T02:49:06.217Z,74.50
2022-08-17T02:51:36.276Z,74.50
2022-08-17T02:54:39.874Z,74.70
2022-08-17T02:56:55.041Z,74.90
2022-08-17T02:59:24.354Z,74.80
2022-08-17T03:01:53.682Z,74.80
2022-08-17T03:04:22.267Z,74.80
2022-08-17T03:06:50.704Z,74.80
2022-08-17T03:09:20.458Z,75.40
2022-08-17T03:11:51.898Z,74.90
2022-08-17T03:14:26.216Z,74.90
2022-08-17T03:16:54.860Z,74.90
2022-08-17T03:19:23.626Z,75.00
2022-08-17T03:21:54.826Z,75.60
2022-08-17T03:24:28.838Z,75.70
2022-08-17T03:26:57.607Z,75.10
2022-08-17T03:29:26.074Z,75.00
2022-08-17T03:31:54.624Z,75.60
2022-08-17T03:34:23.169Z,74.90
2022-08-17T03:36:51.622Z,74.90
2022-08-17T03:39:19.978Z,74.80
2022-08-17T03:41:49.761Z,74.80
2022-08-17T03:44:18.132Z,75.00
2022-08-17T03:47:04.108Z,75.40
2022-08-17T03:49:50.004Z,74.80
2022-08-17T03:52:35.689Z,74.80
2022-08-17T03:55:22.067Z,74.90
2022-08-17T03:58:05.787Z,74.70
2022-08-17T04:00:36.318Z,75.30
2022-08-17T04:03:09.081Z,74.60
2022-08-17T04:05:37.601Z,74.60
2022-08-17T04:08:07.146Z,74.50
2022-08-17T04:10:41.356Z,74.50
2022-08-17T04:13:14.961Z,75.60
2022-08-17T04:15:52.640Z,74.50
2022-08-17T04:18:21.115Z,75.00
2022-08-17T04:20:49.486Z,75.00
2022-08-17T04:23:19.977Z,74.90
2022-08-17T04:25:51.610Z,74.30
2022-08-17T04:28:22.178Z,74.30
2022-08-17T04:30:50.912Z,74.40
2022-08-17T04:33:24.062Z,74.90
2022-08-17T04:35:55.880Z,74.90
2022-08-17T04:38:26.821Z,74.70
2022-08-17T04:41:14.166Z,75.50
2022-08-17T04:43:46.265Z,76.00
2022-08-17T04:46:17.865Z,76.10
2022-08-17T04:48:48.718Z,76.00
2022-08-17T04:51:22.897Z,75.70
2022-08-17T04:53:55.297Z,75.30
2022-08-17T04:56:26.258Z,75.80
2022-08-17T04:58:59.647Z,75.50
2022-08-17T05:01:31.568Z,74.30
2022-08-17T05:04:32.922Z,74.80
2022-08-17T05:06:55.090Z,73.70
2022-08-17T05:09:23.544Z,74.20
2022-08-17T05:11:52.820Z,73.20
2022-08-17T05:14:32.360Z,73.60
2022-08-17T05:17:07.066Z,73.30
2022-08-17T05:19:37.862Z,73.20
2022-08-17T05:22:07.155Z,73.50
2022-08-17T05:24:38.364Z,72.70
2022-08-17T05:27:07.692Z,72.50
2022-08-17T05:29:37.517Z,72.40
2022-08-17T05:32:38.674Z,72.20
2022-08-17T05:35:00.402Z,72.10
2022-08-17T05:37:29.097Z,71.90
2022-08-17T05:39:58.907Z,71.80
2022-08-17T05:42:27.303Z,71.20
2022-08-17T05:44:59.975Z,71.60
2022-08-17T05:47:29.553Z,71.60
2022-08-17T05:49:59.045Z,71.10
2022-08-17T05:52:42.832Z,71.60
2022-08-17T05:55:21.827Z,71.60
2022-08-17T05:58:06.587Z,71.60
2022-08-17T06:00:50.485Z,71.60
2022-08-17T06:03:41.393Z,71.60
2022-08-17T06:06:35.404Z,71.60
2022-08-17T06:09:33.960Z,71.70
2022-08-17T06:12:19.893Z,71.80
2022-08-17T06:15:10.685Z,72.10
2022-08-17T06:17:41.101Z,71.90
2022-08-17T06:20:14.117Z,72.40
2022-08-17T06:22:47.271Z,72.30
2022-08-17T06:25:19.922Z,72.10
2022-08-17T06:27:53.642Z,72.00
2022-08-17T06:30:25.958Z,71.70
2022-08-17T06:33:05.969Z,71.60
2022-08-17T06:35:43.737Z,71.60
2022-08-17T06:38:37.156Z,71.40
2022-08-17T06:41:18.966Z,71.40
2022-08-17T06:44:04.241Z,71.10
2022-08-17T06:46:38.497Z,71.00
2022-08-17T06:49:21.797Z,70.90
2022-08-17T06:51:55.486Z,71.00
2022-08-17T06:54:35.134Z,71.00
2022-08-17T06:57:14.928Z,70.90
2022-08-17T06:59:55.660Z,70.90
2022-08-17T07:02:52.032Z,71.40
2022-08-17T07:05:36.622Z,71.00
2022-08-17T07:08:18.605Z,71.10
2022-08-17T07:10:54.089Z,71.30
2022-08-17T07:13:34.480Z,71.40
2022-08-17T07:16:17.251Z,71.40
2022-08-17T07:18:46.572Z,71.50
2022-08-17T07:21:31.257Z,71.40
2022-08-17T07:24:29.333Z,71.30
2022-08-17T07:27:10.734Z,70.80
2022-08-17T07:29:44.537Z,71.40
2022-08-17T07:32:18.278Z,71.50
2022-08-17T07:35:11.205Z,71.70
2022-08-17T07:37:44.176Z,72.40
2022-08-17T07:40:28.489Z,72.60
2022-08-17T07:43:24.396Z,72.80
2022-08-17T07:46:37.258Z,72.10
2022-08-17T07:49:34.747Z,72.50
2022-08-17T07:52:24.088Z,72.80
2022-08-17T07:54:58.537Z,72.20
2022-08-17T07:57:37.114Z,71.60
2022-08-17T08:00:31.783Z,72.10
2022-08-17T08:03:25.400Z,71.80
2022-08-17T08:06:00.236Z,72.60
2022-08-17T08:08:34.523Z,73.50
2022-08-17T08:11:09.397Z,76.00
2022-08-17T08:13:42.871Z,76.50
2022-08-17T08:16:29.194Z,77.80
2022-08-17T08:19:00.981Z,78.80
2022-08-17T08:21:43.711Z,79.40
2022-08-17T08:24:37.388Z,80.20
2022-08-17T08:27:19.291Z,81.10
2022-08-17T08:29:55.789Z,82.30
2022-08-17T08:32:42.793Z,83.20
2022-08-17T08:35:23.770Z,84.10
2022-08-17T08:38:14.722Z,85.10
2022-08-17T08:41:07.126Z,86.30
2022-08-17T08:43:53.063Z,86.90
2022-08-17T08:46:31.796Z,87.70
2022-08-17T08:50:08.979Z,88.30
2022-08-17T08:53:08.322Z,88.60
2022-08-17T08:55:52.977Z,89.60
2022-08-17T08:58:41.930Z,89.60
2022-08-17T09:01:26.825Z,90.00
2022-08-17T09:04:44.955Z,90.00
2022-08-17T09:07:36.718Z,89.80
2022-08-17T09:10:10.272Z,89.70
2022-08-17T09:12:51.721Z,90.10
2022-08-17T09:15:27.640Z,89.50
2022-08-17T09:18:59.142Z,89.60
2022-08-17T09:20:58.375Z,89.20
2022-08-17T09:23:34.086Z,89.20
2022-08-17T09:26:11.630Z,89.50
2022-08-17T09:28:44.622Z,89.40
2022-08-17T09:31:18.993Z,89.40
2022-08-17T09:33:51.255Z,89.50
2022-08-17T09:36:29.245Z,89.80
2022-08-17T09:39:02.553Z,89.50
2022-08-17T09:41:49.238Z,89.20
2022-08-17T09:44:32.071Z,89.40
2022-08-17T09:47:12.050Z,89.40
2022-08-17T09:49:48.192Z,89.20
2022-08-17T09:52:23.437Z,89.20
2022-08-17T09:54:55.446Z,89.30
2022-08-17T09:57:44.996Z,88.80
2022-08-17T10:00:23.706Z,88.70
2022-08-17T10:03:28.272Z,89.00
2022-08-17T10:06:08.800Z,88.70
2022-08-17T10:08:45.515Z,87.90
2022-08-17T10:11:48.404Z,86.90
2022-08-17T10:14:37.305Z,85.50
2022-08-17T10:17:22.232Z,84.80
2022-08-17T10:20:01.094Z,82.90
2022-08-17T10:22:56.464Z,82.40
2022-08-17T10:25:54.678Z,81.70
2022-08-17T10:28:30.946Z,83.10
2022-08-17T10:31:33.874Z,82.00
2022-08-17T10:34:38.707Z,81.10
2022-08-17T10:37:37.455Z,80.60
2022-08-17T10:40:24.588Z,80.30
2022-08-17T10:43:02.457Z,80.30
2022-08-17T10:45:44.981Z,79.00
2022-08-17T10:48:32.945Z,78.70
2022-08-17T10:51:08.785Z,78.20
2022-08-17T10:54:01.557Z,77.50
2022-08-17T10:56:51.507Z,77.10
2022-08-17T10:59:52.809Z,76.50
2022-08-17T11:02:28.155Z,76.00
2022-08-17T11:05:23.764Z,74.90
2022-08-17T11:08:20.565Z,74.20
2022-08-17T11:11:14.574Z,73.70
2022-08-17T11:13:53.654Z,72.80
2022-08-17T11:16:47.920Z,71.80
2022-08-17T11:19:58.505Z,70.90
2022-08-17T11:23:41.622Z,70.00
2022-08-17T11:26:27.132Z,68.70
2022-08-17T11:29:01.350Z,67.30
2022-08-17T11:31:38.713Z,66.10
2022-08-17T11:34:19.743Z,65.30
2022-08-17T11:37:42.775Z,64.70
2022-08-17T11:40:56.126Z,64.20
2022-08-17T11:44:15.359Z,62.90
2022-08-17T11:47:19.224Z,61.90
2022-08-17T11:50:27.731Z,60.40
2022-08-17T11:52:57.001Z,60.00
2022-08-17T11:56:04.750Z,59.60
2022-08-17T11:58:42.041Z,59.40
2022-08-17T12:01:16.244Z,59.20
2022-08-17T12:03:55.412Z,59.10
2022-08-17T12:06:46.628Z,58.50
2022-08-17T12:09:20.826Z,58.60
2022-08-17T12:12:13.431Z,58.00
2022-08-17T12:15:11.079Z,58.10
2022-08-17T12:17:42.881Z,58.30
2022-08-17T12:20:24.046Z,58.30
2022-08-17T12:23:04.397Z,58.40
2022-08-17T12:25:40.313Z,58.30
2022-08-17T12:28:23.458Z,58.50
2022-08-17T12:30:54.174Z,58.50
2022-08-17T12:33:28.333Z,58.40
2022-08-17T12:36:03.990Z,58.40
2022-08-17T12:38:34.780Z,58.20
2022-08-17T12:41:21.628Z,58.10
2022-08-17T12:44:00.413Z,58.10
2022-08-17T12:46:33.579Z,59.40
2022-08-17T12:49:29.527Z,57.50
2022-08-17T12:52:14.177Z,57.80
2022-08-17T12:54:52.359Z,57.90
2022-08-17T12:57:24.146Z,58.00
2022-08-17T12:59:59.785Z,57.90
2022-08-17T13:02:42.544Z,57.90
2022-08-17T13:05:25.020Z,57.80
2022-08-17T13:07:54.542Z,57.90
2022-08-17T13:10:32.478Z,57.80
2022-08-17T13:13:05.393Z,57.70
2022-08-17T13:15:44.905Z,57.20
2022-08-17T13:18:39.549Z,56.40
2022-08-17T13:21:26.618Z,55.50
2022-08-17T13:24:05.667Z,55.20
2022-08-17T13:26:38.207Z,55.00
2022-08-17T13:29:18.629Z,55.00
2022-08-17T13:31:52.675Z,54.90
2022-08-17T13:35:12.622Z,54.50
2022-08-17T13:37:34.059Z,53.20
2022-08-17T13:40:27.890Z,53.50
2022-08-17T13:42:57.681Z,53.00
2022-08-17T13:45:39.651Z,51.20
2022-08-17T13:48:13.870Z,50.50
2022-08-17T13:50:49.208Z,49.90
2022-08-17T13:53:24.737Z,49.50
2022-08-17T13:55:57.040Z,48.50
2022-08-17T13:58:31.821Z,47.90
2022-08-17T14:01:16.431Z,47.50
2022-08-17T14:03:44.850Z,46.80
2022-08-17T14:06:22.111Z,46.80
2022-08-17T14:09:10.222Z,46.30
2022-08-17T14:11:39.622Z,46.00
2022-08-17T14:14:08.073Z,45.80
2022-08-17T14:16:40.285Z,45.40
2022-08-17T14:19:10.173Z,44.80
2022-08-17T14:21:41.046Z,44.60
2022-08-17T14:24:17.081Z,44.40
2022-08-17T14:26:45.799Z,44.30
2022-08-17T14:29:15.447Z,44.00
2022-08-17T14:31:53.251Z,44.50
2022-08-17T14:34:24.079Z,43.80
2022-08-17T14:36:54.022Z,42.90
2022-08-17T14:39:22.508Z,43.20
2022-08-17T14:41:52.995Z,43.30
2022-08-17T14:44:21.473Z,43.20
2022-08-17T14:46:50.470Z,43.00
2022-08-17T14:49:20.673Z,43.20
2022-08-17T14:51:49.489Z,43.30
2022-08-17T14:54:34.116Z,43.20
2022-08-17T14:57:22.495Z,43.00
2022-08-17T14:59:54.949Z,42.80
2022-08-17T15:02:29.824Z,42.60
2022-08-17T15:05:03.833Z,42.60
2022-08-17T15:07:32.496Z,42.40
2022-08-17T15:10:02.803Z,42.40
2022-08-17T15:12:34.029Z,42.20
2022-08-17T15:15:04.760Z,42.20
2022-08-17T15:17:44.617Z,42.00
2022-08-17T15:20:18.049Z,41.70
2022-08-17T15:22:49.636Z,41.40
2022-08-17T15:25:22.099Z,41.10
2022-08-17T15:27:50.988Z,40.80
2022-08-17T15:30:20.684Z,40.50
2022-08-17T15:32:55.160Z,40.00
2022-08-17T15:35:27.908Z,39.70
2022-08-17T15:38:06.195Z,39.40
2022-08-17T15:40:43.800Z,39.20
2022-08-17T15:43:16.870Z,39.10
2022-08-17T15:45:58.610Z,39.20
2022-08-17T15:48:41.338Z,39.10
2022-08-17T15:51:12.878Z,38.80
2022-08-17T15:53:43.153Z,38.80
2022-08-17T15:56:13.645Z,38.80
2022-08-17T15:58:44.515Z,38.80
2022-08-17T16:01:18.715Z,38.80
2022-08-17T16:04:06.637Z,39.20
2022-08-17T16:06:50.497Z,39.60
2022-08-17T16:09:18.977Z,40.00
2022-08-17T16:11:55.096Z,40.60
2022-08-17T16:14:24.101Z,40.80
2022-08-17T16:16:52.777Z,41.00
2022-08-17T16:19:21.220Z,41.10
2022-08-17T16:21:49.592Z,41.20
2022-08-17T16:24:18.001Z,41.20
2022-08-17T16:26:46.374Z,41.30
2022-08-17T16:29:16.325Z,41.40
2022-08-17T16:31:44.738Z,41.50
2022-08-17T16:34:17.114Z,41.70
2022-08-17T16:36:55.265Z,41.80
2022-08-17T16:39:27.348Z,41.90
2022-08-17T16:41:57.269Z,42.00
2022-08-17T16:44:28.954Z,42.10
2022-08-17T16:46:58.095Z,42.20
2022-08-17T16:52:11.265Z,42.50
2022-08-17T16:54:43.312Z,42.50
2022-08-17T16:59:47.770Z,42.50
2022-08-17T17:02:18.124Z,42.60
2022-08-17T17:04:53.929Z,42.60
2022-08-17T17:07:52.122Z,42.70
2022-08-17T17:10:25.262Z,42.80
2022-08-17T17:13:03.498Z,42.80
2022-08-17T17:15:54.283Z,42.80
2022-08-17T17:18:32.637Z,42.90
2022-08-17T17:21:02.171Z,42.90
2022-08-17T17:23:46.529Z,43.00
2022-08-17T17:26:48.329Z,43.10
2022-08-17T17:29:47.482Z,43.20
2022-08-17T17:32:25.342Z,43.30
2022-08-17T17:35:02.595Z,43.40
2022-08-17T17:37:35.824Z,43.60
2022-08-17T17:40:13.608Z,43.70
2022-08-17T17:42:44.724Z,43.80
2022-08-17T17:45:21.812Z,43.90
2022-08-17T17:47:51.795Z,44.00
2022-08-17T17:50:28.984Z,44.10
2022-08-17T17:53:04.065Z,44.20
2022-08-17T17:55:48.064Z,44.20
2022-08-17T17:58:36.946Z,44.20
2022-08-17T18:01:42.010Z,44.30
2022-08-17T18:04:23.526Z,44.50
2022-08-17T18:07:13.234Z,44.50
2022-08-17T18:10:02.002Z,44.70
2022-08-17T18:12:41.620Z,45.00
2022-08-17T18:15:25.677Z,45.20
2022-08-17T18:18:37.768Z,45.10
2022-08-17T18:21:16.803Z,45.20
2022-08-17T18:23:59.935Z,45.40
2022-08-17T18:26:46.520Z,45.60
2022-08-17T18:29:38.016Z,45.50
2022-08-17T18:32:35.638Z,45.90
2022-08-17T18:35:30.394Z,46.00
2022-08-17T18:38:22.828Z,46.00
2022-08-17T18:41:06.192Z,46.30
2022-08-17T18:43:52.633Z,46.40
2022-08-17T18:46:35.370Z,46.70
2022-08-17T18:49:07.720Z,46.80
2022-08-17T18:51:42.503Z,47.30
2022-08-17T18:54:23.922Z,47.60
2022-08-17T18:56:57.017Z,47.30
2022-08-17T18:59:42.274Z,47.40
2022-08-17T19:02:44.116Z,47.50
2022-08-17T19:05:29.125Z,47.60
2022-08-17T19:08:20.620Z,47.90
2022-08-17T19:10:55.130Z,48.00
2022-08-17T19:13:32.802Z,48.10
2022-08-17T19:16:12.325Z,48.30
2022-08-17T19:18:49.676Z,48.50
2022-08-17T19:21:24.640Z,48.50
2022-08-17T19:24:01.467Z,48.70
2022-08-17T19:26:50.531Z,48.80
2022-08-17T19:29:27.630Z,48.90
2022-08-17T19:31:58.747Z,48.90
2022-08-17T19:34:34.375Z,49.00
2022-08-17T19:37:10.653Z,49.20
2022-08-17T19:39:51.035Z,50.60
2022-08-17T19:42:33.931Z,49.50
2022-08-17T19:45:11.702Z,49.80
2022-08-17T19:47:55.432Z,49.90
2022-08-17T19:50:38.447Z,50.10
2022-08-17T19:53:21.273Z,50.20
2022-08-17T19:56:00.937Z,50.20
2022-08-17T19:58:48.200Z,50.50
2022-08-17T20:01:34.973Z,50.50
2022-08-17T20:04:14.165Z,50.70
2022-08-17T20:06:49.256Z,50.80
2022-08-17T20:09:21.859Z,51.00
2022-08-17T20:11:56.297Z,51.20
2022-08-17T20:14:40.089Z,51.30
2022-08-17T20:17:23.420Z,51.40
2022-08-17T20:20:00.072Z,51.60
2022-08-17T20:22:36.916Z,51.70
2022-08-17T20:25:32.633Z,52.00
2022-08-17T20:28:15.687Z,52.30
2022-08-17T20:30:46.113Z,52.40
2022-08-17T20:33:28.430Z,52.50
2022-08-17T20:36:19.231Z,52.70
2022-08-17T20:38:50.872Z,52.80
2022-08-17T20:41:23.186Z,52.90
2022-08-17T20:44:07.108Z,53.00
2022-08-17T20:46:57.934Z,53.10
2022-08-17T20:49:40.117Z,53.20
2022-08-17T20:52:13.397Z,53.30
2022-08-17T20:54:49.948Z,53.60
2022-08-17T20:57:48.990Z,53.70
2022-08-17T21:00:47.266Z,53.80
2022-08-17T21:03:52.738Z,54.00
2022-08-17T21:06:25.316Z,54.00
2022-08-17T21:09:19.641Z,54.10
2022-08-17T21:12:03.949Z,54.20
2022-08-17T21:14:57.363Z,54.40
2022-08-17T21:17:48.125Z,54.50
2022-08-17T21:20:32.969Z,54.70
2022-08-17T21:23:25.824Z,55.10
2022-08-17T21:26:13.822Z,55.30
2022-08-17T21:29:32.593Z,55.50
2022-08-17T21:32:24.199Z,55.80
2022-08-17T21:35:28.896Z,56.10
2022-08-17T21:38:04.985Z,56.20
2022-08-17T21:40:35.460Z,56.30
2022-08-17T21:43:35.219Z,56.40
2022-08-17T21:46:08.295Z,56.50
2022-08-17T21:48:45.378Z,56.70
2022-08-17T21:51:23.444Z,56.70
2022-08-17T21:53:54.289Z,56.80
2022-08-17T21:56:26.562Z,56.80
2022-08-17T21:59:00.561Z,56.90
2022-08-17T22:01:35.322Z,56.90
2022-08-17T22:04:08.629Z,57.30
2022-08-17T22:06:42.184Z,56.90
2022-08-17T22:09:25.694Z,57.10
2022-08-17T22:12:07.218Z,57.20
2022-08-17T22:14:52.485Z,57.40
2022-08-17T22:17:26.075Z,57.60
2022-08-17T22:19:57.816Z,57.80
2022-08-17T22:22:57.077Z,58.00
2022-08-17T22:25:26.706Z,58.00
2022-08-17T22:28:00.106Z,58.20
2022-08-17T22:30:36.584Z,58.20
2022-08-17T22:33:39.647Z,58.30
2022-08-17T22:36:29.448Z,58.30
2022-08-17T22:39:03.409Z,58.30
2022-08-17T22:41:43.833Z,58.30
2022-08-17T22:44:31.618Z,58.30
2022-08-17T22:47:11.426Z,58.30
2022-08-17T22:49:54.092Z,58.30
2022-08-17T22:52:34.429Z,58.40
2022-08-17T22:55:31.878Z,58.50
2022-08-17T22:58:19.004Z,58.60
2022-08-17T23:00:50.656Z,58.60
2022-08-17T23:03:22.895Z,58.80
2022-08-17T23:06:07.498Z,58.90
2022-08-17T23:08:43.645Z,59.00
2022-08-17T23:11:15.033Z,59.10
2022-08-17T23:13:44.418Z,59.20
2022-08-17T23:16:13.305Z,59.40
2022-08-17T23:18:41.721Z,59.50
2022-08-17T23:21:10.355Z,59.60
2022-08-17T23:23:44.629Z,59.80
2022-08-17T23:26:14.376Z,60.00
2022-08-17T23:28:43.766Z,60.30
2022-08-17T23:31:13.777Z,60.60
2022-08-17T23:33:42.529Z,60.70
2022-08-17T23:36:15.362Z,61.00
2022-08-17T23:41:21.404Z,61.40
2022-08-17T23:43:53.671Z,61.60
2022-08-17T23:46:25.081Z,61.80
2022-08-17T23:48:54.202Z,61.90
2022-08-17T23:51:28.484Z,61.90
2022-08-17T23:54:07.698Z,61.90
2022-08-17T23:56:44.502Z,62.00
2022-08-17T23:59:13.526Z,62.00
